createdAt,value
2019-03-06T00:01:07.859Z,4.20
2019-03-06T00:03:39.863Z,4.20
2019-03-06T00:06:16.781Z,4.13
2019-03-06T00:08:45.801Z,4.27
2019-03-06T00:11:17.786Z,3.93
2019-03-06T00:13:49.827Z,4.00
2019-03-06T00:16:21.829Z,4.20
2019-03-06T00:18:53.812Z,3.97
2019-03-06T00:21:25.834Z,5.40
2019-03-06T00:23:57.810Z,5.13
2019-03-06T00:26:29.938Z,4.70
2019-03-06T00:29:01.948Z,6.10
2019-03-06T00:31:33.924Z,6.10
2019-03-06T00:34:05.900Z,5.00
2019-03-06T00:36:37.892Z,5.23
2019-03-06T00:39:10.137Z,5.10
2019-03-06T00:41:47.350Z,4.60
2019-03-06T00:44:19.326Z,4.63
2019-03-06T00:46:51.324Z,6.60
2019-03-06T00:49:23.306Z,5.37
2019-03-06T00:51:55.731Z,5.53
2019-03-06T00:54:27.669Z,6.33
2019-03-06T00:56:59.678Z,5.17
2019-03-06T00:59:31.633Z,4.70
2019-03-06T01:02:04.145Z,4.80
2019-03-06T01:04:36.123Z,4.27
2019-03-06T01:07:08.129Z,4.40
2019-03-06T01:09:40.092Z,4.03
2019-03-06T01:12:12.393Z,3.80
2019-03-06T01:14:44.374Z,6.43
2019-03-06T01:17:16.337Z,7.80
2019-03-06T01:19:48.341Z,6.93
2019-03-06T01:22:20.336Z,5.13
2019-03-06T01:24:52.292Z,5.40
2019-03-06T01:27:24.302Z,6.13
2019-03-06T01:29:56.251Z,5.23
2019-03-06T01:32:28.334Z,4.03
2019-03-06T01:35:18.529Z,3.40
2019-03-06T01:38:08.942Z,4.07
2019-03-06T01:40:59.391Z,3.60
2019-03-06T01:43:36.279Z,3.00
2019-03-06T01:46:08.265Z,5.33
2019-03-06T01:48:40.511Z,5.27
2019-03-06T01:51:12.452Z,5.00
2019-03-06T01:53:44.459Z,5.00
2019-03-06T01:56:16.402Z,3.40
2019-03-06T01:58:48.392Z,3.83
2019-03-06T02:01:20.392Z,3.37
2019-03-06T02:03:52.384Z,2.87
2019-03-06T02:06:24.388Z,5.07
2019-03-06T02:08:56.381Z,4.33
2019-03-06T02:11:28.340Z,6.00
2019-03-06T02:14:00.340Z,8.90
2019-03-06T02:16:32.500Z,6.57
2019-03-06T02:19:04.527Z,6.63
2019-03-06T02:21:36.496Z,6.23
2019-03-06T02:24:08.474Z,6.57
2019-03-06T02:26:40.746Z,8.33
2019-03-06T02:29:12.727Z,6.73
2019-03-06T02:31:44.680Z,5.60
2019-03-06T02:34:16.660Z,5.40
2019-03-06T02:36:48.843Z,5.63
2019-03-06T02:39:20.825Z,5.00
2019-03-06T02:41:52.767Z,4.80
2019-03-06T02:44:24.748Z,4.30
2019-03-06T02:46:56.728Z,4.57
2019-03-06T02:49:28.740Z,4.30
2019-03-06T02:52:00.726Z,4.00
2019-03-06T02:54:32.697Z,6.63
2019-03-06T02:57:04.639Z,8.30
2019-03-06T03:00:05.349Z,7.83
2019-03-06T03:02:55.299Z,12.67
2019-03-06T03:05:34.866Z,8.80
2019-03-06T03:08:06.810Z,5.37
2019-03-06T03:10:38.837Z,7.27
2019-03-06T03:13:10.783Z,11.83
2019-03-06T03:15:42.762Z,7.20
2019-03-06T03:18:14.749Z,7.37
2019-03-06T03:20:46.696Z,7.00
2019-03-06T03:23:18.660Z,7.30
2019-03-06T03:25:50.649Z,8.60
2019-03-06T03:28:22.618Z,4.93
2019-03-06T03:30:54.589Z,5.67
2019-03-06T03:33:26.857Z,6.53
2019-03-06T03:35:58.856Z,5.20
2019-03-06T03:38:30.832Z,7.03
2019-03-06T03:41:02.825Z,6.73
2019-03-06T03:43:34.765Z,8.93
2019-03-06T03:46:06.772Z,10.43
2019-03-06T03:48:38.704Z,7.60
2019-03-06T03:51:10.687Z,10.27
2019-03-06T03:53:42.643Z,9.37
2019-03-06T03:56:14.694Z,11.80
2019-03-06T03:58:46.662Z,8.67
2019-03-06T04:01:18.634Z,7.23
2019-03-06T04:03:50.629Z,8.57
2019-03-06T04:06:22.820Z,8.23
2019-03-06T04:08:54.797Z,8.30
2019-03-06T04:11:26.877Z,8.57
2019-03-06T04:13:58.862Z,7.03
2019-03-06T04:16:31.131Z,7.70
2019-03-06T04:19:03.127Z,8.17
2019-03-06T04:21:35.094Z,7.80
2019-03-06T04:24:07.091Z,7.70
2019-03-06T04:26:39.063Z,7.77
2019-03-06T04:29:11.053Z,8.33
2019-03-06T04:31:43.009Z,8.27
2019-03-06T04:34:15.253Z,8.33
2019-03-06T04:36:47.256Z,7.87
2019-03-06T04:39:19.231Z,7.17
2019-03-06T04:41:52.510Z,8.40
2019-03-06T04:44:24.504Z,8.60
2019-03-06T04:46:56.479Z,8.17
2019-03-06T04:49:28.469Z,7.67
2019-03-06T04:52:00.488Z,8.30
2019-03-06T04:54:32.452Z,7.73
2019-03-06T04:57:04.519Z,7.40
2019-03-06T04:59:36.599Z,7.27
2019-03-06T05:02:08.562Z,7.50
2019-03-06T05:04:40.556Z,7.57
2019-03-06T05:07:12.510Z,7.97
2019-03-06T05:09:44.807Z,7.67
2019-03-06T05:12:16.769Z,7.43
2019-03-06T05:14:51.365Z,8.40
2019-03-06T05:17:33.331Z,7.03
2019-03-06T05:20:05.383Z,7.53
2019-03-06T05:22:37.361Z,7.00
2019-03-06T05:25:09.366Z,7.77
2019-03-06T05:27:41.352Z,7.73
2019-03-06T05:30:14.154Z,6.97
2019-03-06T05:32:46.558Z,8.00
2019-03-06T05:36:03.396Z,8.13
2019-03-06T05:38:43.082Z,8.13
2019-03-06T05:41:15.040Z,7.40
2019-03-06T05:43:47.001Z,8.17
2019-03-06T05:46:19.020Z,7.57
2019-03-06T05:48:50.981Z,8.43
2019-03-06T05:51:22.969Z,8.23
2019-03-06T05:53:54.949Z,9.77
2019-03-06T05:56:26.976Z,8.97
2019-03-06T05:58:59.010Z,9.20
2019-03-06T06:01:30.987Z,9.17
2019-03-06T06:04:03.147Z,8.93
2019-03-06T06:06:35.153Z,10.53
2019-03-06T06:09:07.120Z,9.57
2019-03-06T06:11:39.147Z,9.07
2019-03-06T06:14:11.118Z,10.00
2019-03-06T06:16:43.099Z,9.63
2019-03-06T06:19:15.087Z,9.50
2019-03-06T06:22:12.968Z,9.43
2019-03-06T06:24:44.954Z,10.57
2019-03-06T06:27:16.960Z,11.23
2019-03-06T06:29:49.122Z,15.50
2019-03-06T06:32:21.105Z,12.13
2019-03-06T06:34:53.076Z,10.70
2019-03-06T06:37:25.173Z,10.13
2019-03-06T06:39:57.520Z,9.40
2019-03-06T06:42:29.494Z,9.37
2019-03-06T06:45:01.449Z,8.50
2019-03-06T06:47:33.488Z,8.60
2019-03-06T06:50:05.724Z,8.40
2019-03-06T06:53:10.140Z,8.30
2019-03-06T06:56:02.097Z,7.37
2019-03-06T06:59:00.779Z,6.70
2019-03-06T07:02:02.807Z,7.47
2019-03-06T07:05:37.308Z,6.50
2019-03-06T07:08:28.920Z,7.43
2019-03-06T07:11:23.111Z,7.50
2019-03-06T07:14:02.088Z,10.10
2019-03-06T07:16:52.527Z,9.73
2019-03-06T07:19:38.308Z,9.53
2019-03-06T07:22:18.918Z,8.47
2019-03-06T07:25:13.703Z,9.13
2019-03-06T07:27:59.243Z,9.43
2019-03-06T07:30:53.577Z,10.43
2019-03-06T07:33:51.428Z,9.40
2019-03-06T07:36:43.001Z,10.20
2019-03-06T07:39:23.029Z,10.07
2019-03-06T07:42:13.524Z,9.73
2019-03-06T07:45:57.185Z,11.20
2019-03-06T07:49:10.722Z,10.10
2019-03-06T07:52:20.452Z,7.40
2019-03-06T07:55:28.403Z,7.50
2019-03-06T07:58:47.890Z,7.07
2019-03-06T08:01:20.561Z,6.57
2019-03-06T08:04:02.149Z,6.10
2019-03-06T08:06:34.370Z,6.20
2019-03-06T08:09:07.544Z,6.90
2019-03-06T08:11:49.890Z,6.07
2019-03-06T08:14:46.021Z,5.90
2019-03-06T08:17:46.463Z,6.27
2019-03-06T08:20:56.439Z,6.10
2019-03-06T08:24:00.112Z,5.50
2019-03-06T08:26:32.103Z,4.90
2019-03-06T08:29:04.178Z,5.27
2019-03-06T08:31:41.736Z,4.70
2019-03-06T08:34:13.715Z,4.67
2019-03-06T08:36:45.724Z,3.47
2019-03-06T08:39:19.593Z,4.37
2019-03-06T08:41:51.590Z,3.87
2019-03-06T08:44:23.563Z,3.60
2019-03-06T08:47:18.897Z,3.23
2019-03-06T08:50:06.822Z,2.93
2019-03-06T08:53:04.743Z,2.87
2019-03-06T08:55:56.350Z,3.27
2019-03-06T08:58:47.954Z,3.50
2019-03-06T09:01:44.285Z,3.63
2019-03-06T09:04:36.054Z,2.60
2019-03-06T09:07:33.699Z,2.97
2019-03-06T09:10:26.785Z,3.13
2019-03-06T09:13:29.196Z,2.67
2019-03-06T09:16:19.712Z,2.40
2019-03-06T09:19:10.334Z,2.33
2019-03-06T09:22:03.036Z,1.90
2019-03-06T09:24:47.391Z,2.20
2019-03-06T09:27:38.323Z,2.10
2019-03-06T09:30:36.235Z,1.73
2019-03-06T09:33:12.516Z,2.27
2019-03-06T09:36:04.148Z,1.73
2019-03-06T09:39:01.653Z,1.90
2019-03-06T09:41:42.978Z,1.93
2019-03-06T09:44:28.848Z,1.50
2019-03-06T09:47:19.512Z,1.80
2019-03-06T09:50:23.535Z,1.53
2019-03-06T09:53:13.857Z,1.80
2019-03-06T09:56:04.389Z,2.13
2019-03-06T09:58:54.825Z,1.70
2019-03-06T10:01:40.684Z,1.90
2019-03-06T10:04:25.685Z,1.53
2019-03-06T10:07:24.285Z,1.63
2019-03-06T10:10:07.025Z,1.87
2019-03-06T10:12:53.937Z,1.80
2019-03-06T10:15:31.668Z,1.97
2019-03-06T10:18:23.317Z,1.77
2019-03-06T10:20:55.370Z,1.83
2019-03-06T10:23:27.406Z,2.00
2019-03-06T10:25:59.436Z,1.67
2019-03-06T10:28:31.424Z,1.90
2019-03-06T10:31:04.142Z,1.90
2019-03-06T10:33:36.149Z,1.37
2019-03-06T10:36:08.531Z,1.80
2019-03-06T10:38:40.536Z,1.60
2019-03-06T10:41:12.539Z,1.90
2019-03-06T10:43:49.643Z,1.73
2019-03-06T10:46:18.480Z,1.60
2019-03-06T10:48:50.464Z,2.07
2019-03-06T10:51:22.774Z,1.60
2019-03-06T10:53:54.830Z,1.80
2019-03-06T10:56:27.252Z,1.70
2019-03-06T10:58:59.857Z,2.10
2019-03-06T11:01:31.946Z,2.03
2019-03-06T11:04:29.584Z,2.00
2019-03-06T11:07:01.697Z,2.00
2019-03-06T11:09:33.982Z,1.70
2019-03-06T11:12:06.415Z,1.83
2019-03-06T11:14:38.715Z,1.57
2019-03-06T11:17:10.708Z,1.63
2019-03-06T11:19:43.020Z,1.87
2019-03-06T11:22:15.071Z,1.83
2019-03-06T11:24:47.182Z,1.90
2019-03-06T11:27:19.206Z,2.20
2019-03-06T11:29:51.233Z,1.43
2019-03-06T11:32:23.282Z,1.60
2019-03-06T11:34:55.289Z,1.80
2019-03-06T11:37:28.179Z,1.60
2019-03-06T11:40:00.321Z,1.80
2019-03-06T11:42:32.394Z,1.60
2019-03-06T11:45:04.796Z,1.97
2019-03-06T11:47:36.815Z,1.97
2019-03-06T11:50:09.367Z,2.30
2019-03-06T11:52:41.377Z,2.03
2019-03-06T11:55:13.712Z,1.77
2019-03-06T11:57:45.711Z,2.20
2019-03-06T12:00:25.238Z,1.67
2019-03-06T12:02:57.214Z,2.00
2019-03-06T12:05:29.333Z,1.90
2019-03-06T12:08:01.366Z,1.90
2019-03-06T12:10:33.369Z,1.87
2019-03-06T12:13:08.287Z,2.13
2019-03-06T12:15:41.976Z,2.23
2019-03-06T12:18:14.380Z,2.22
2019-03-06T12:20:46.846Z,2.23
2019-03-06T12:23:18.871Z,1.90
2019-03-06T12:25:50.916Z,2.07
2019-03-06T12:28:22.881Z,2.00
2019-03-06T12:30:55.298Z,2.07
2019-03-06T12:33:28.209Z,1.90
2019-03-06T12:36:00.221Z,1.83
2019-03-06T12:38:32.214Z,2.20
2019-03-06T12:41:04.507Z,2.17
2019-03-06T12:43:37.126Z,2.40
2019-03-06T12:46:30.490Z,2.20
2019-03-06T12:49:13.832Z,2.23
2019-03-06T12:51:54.095Z,2.20
2019-03-06T12:54:19.787Z,2.40
2019-03-06T12:56:51.808Z,2.57
2019-03-06T12:59:23.833Z,2.60
2019-03-06T13:01:55.851Z,2.47
2019-03-06T13:04:27.859Z,2.37
2019-03-06T13:06:59.965Z,2.67
2019-03-06T13:09:31.992Z,2.30
2019-03-06T13:12:04.081Z,2.67
2019-03-06T13:14:36.076Z,2.70
2019-03-06T13:17:08.087Z,2.70
2019-03-06T13:19:40.076Z,2.20
2019-03-06T13:22:12.143Z,2.30
2019-03-06T13:24:44.635Z,2.67
2019-03-06T13:27:16.619Z,2.47
2019-03-06T13:29:48.616Z,2.72
2019-03-06T13:32:22.628Z,2.50
2019-03-06T13:34:59.149Z,2.50
2019-03-06T13:37:31.139Z,2.73
2019-03-06T13:40:03.852Z,2.23
2019-03-06T13:42:35.889Z,2.60
2019-03-06T13:45:08.408Z,2.35
2019-03-06T13:47:40.602Z,2.40
2019-03-06T13:50:13.009Z,2.40
2019-03-06T13:52:45.062Z,2.70
2019-03-06T13:55:17.110Z,2.47
2019-03-06T13:57:49.221Z,2.20
2019-03-06T14:00:21.331Z,2.65
2019-03-06T14:02:53.404Z,2.40
2019-03-06T14:05:25.517Z,2.30
2019-03-06T14:07:57.519Z,2.67
2019-03-06T14:10:29.483Z,2.58
2019-03-06T14:13:01.633Z,2.05
2019-03-06T14:15:33.803Z,2.60
2019-03-06T14:18:06.736Z,2.20
2019-03-06T14:20:38.778Z,2.17
2019-03-06T14:23:10.812Z,2.12
2019-03-06T14:25:42.865Z,2.65
2019-03-06T14:28:15.863Z,2.50
2019-03-06T14:30:48.007Z,2.30
2019-03-06T14:33:20.165Z,1.95
2019-03-06T14:35:52.597Z,2.00
2019-03-06T14:38:24.610Z,2.42
2019-03-06T14:40:57.192Z,2.40
2019-03-06T14:43:29.217Z,2.13
2019-03-06T14:46:01.258Z,2.30
2019-03-06T14:48:33.292Z,2.80
2019-03-06T14:51:05.305Z,2.90
2019-03-06T14:53:37.317Z,2.80
2019-03-06T14:56:09.345Z,2.35
2019-03-06T14:58:41.340Z,2.85
2019-03-06T15:01:13.383Z,2.60
2019-03-06T15:03:45.406Z,2.33
2019-03-06T15:06:17.516Z,2.72
2019-03-06T15:08:49.476Z,2.77
2019-03-06T15:11:21.840Z,2.60
2019-03-06T15:13:53.828Z,2.60
2019-03-06T15:16:25.822Z,3.05
2019-03-06T15:18:57.856Z,3.00
2019-03-06T15:21:29.883Z,2.95
2019-03-06T15:24:01.884Z,3.22
2019-03-06T15:26:33.879Z,3.80
2019-03-06T15:29:05.874Z,3.30
2019-03-06T15:31:37.902Z,3.60
2019-03-06T15:34:10.520Z,3.83
2019-03-06T15:36:42.624Z,3.60
2019-03-06T15:39:28.802Z,3.47
2019-03-06T15:42:03.075Z,3.17
2019-03-06T15:44:35.473Z,3.80
2019-03-06T15:47:07.805Z,3.25
2019-03-06T15:49:39.815Z,4.65
2019-03-06T15:52:11.859Z,3.40
2019-03-06T15:54:43.933Z,3.90
2019-03-06T15:57:16.033Z,2.92
2019-03-06T15:59:48.069Z,4.08
2019-03-06T16:02:20.070Z,3.30
2019-03-06T16:04:52.132Z,3.20
2019-03-06T16:07:24.384Z,3.58
2019-03-06T16:09:56.422Z,3.25
2019-03-06T16:12:28.400Z,3.70
2019-03-06T16:15:00.438Z,4.50
2019-03-06T16:17:32.443Z,4.80
2019-03-06T16:20:08.450Z,3.57
2019-03-06T16:22:40.480Z,3.53
2019-03-06T16:25:12.644Z,3.90
2019-03-06T16:27:44.760Z,3.80
2019-03-06T16:30:17.481Z,4.47
2019-03-06T16:32:49.590Z,4.40
2019-03-06T16:35:21.700Z,3.93
2019-03-06T16:37:53.721Z,3.87
2019-03-06T16:40:26.067Z,3.90
2019-03-06T16:42:58.131Z,4.33
2019-03-06T16:45:30.454Z,4.80
2019-03-06T16:48:02.535Z,4.13
2019-03-06T16:50:34.610Z,3.43
2019-03-06T16:53:06.715Z,3.07
2019-03-06T16:55:39.973Z,4.00
2019-03-06T16:58:12.190Z,4.77
2019-03-06T17:00:44.486Z,4.97
2019-03-06T17:03:16.531Z,4.10
2019-03-06T17:05:48.673Z,4.37
2019-03-06T17:08:20.713Z,5.77
2019-03-06T17:10:52.750Z,5.87
2019-03-06T17:13:24.823Z,4.83
2019-03-06T17:15:56.836Z,5.13
2019-03-06T17:18:28.831Z,4.30
2019-03-06T17:21:00.900Z,4.30
2019-03-06T17:23:32.906Z,4.10
2019-03-06T17:26:04.943Z,3.90
2019-03-06T17:28:37.261Z,3.83
2019-03-06T17:31:09.341Z,4.17
2019-03-06T17:33:41.346Z,3.93
2019-03-06T17:36:13.435Z,4.33
2019-03-06T17:38:45.480Z,3.90
2019-03-06T17:41:17.573Z,3.73
2019-03-06T17:43:49.564Z,3.83
2019-03-06T17:46:21.583Z,3.70
2019-03-06T17:48:53.654Z,3.70
2019-03-06T17:51:25.731Z,4.33
2019-03-06T17:53:57.784Z,3.57
2019-03-06T17:56:29.874Z,3.83
2019-03-06T17:59:03.324Z,4.37
2019-03-06T18:01:35.550Z,3.83
2019-03-06T18:04:17.992Z,4.73
2019-03-06T18:06:50.070Z,4.50
2019-03-06T18:09:22.219Z,4.57
2019-03-06T18:11:54.318Z,4.13
2019-03-06T18:14:26.377Z,4.00
2019-03-06T18:16:58.460Z,3.90
2019-03-06T18:19:30.548Z,4.13
2019-03-06T18:22:02.615Z,3.97
2019-03-06T18:24:34.710Z,3.43
2019-03-06T18:27:06.804Z,3.93
2019-03-06T18:29:38.869Z,3.90
2019-03-06T18:32:10.971Z,3.50
2019-03-06T18:34:43.118Z,3.00
2019-03-06T18:37:15.278Z,4.07
2019-03-06T18:39:47.353Z,3.60
2019-03-06T18:42:19.395Z,7.03
2019-03-06T18:44:51.459Z,5.60
2019-03-06T18:47:23.495Z,8.07
2019-03-06T18:49:55.572Z,7.07
2019-03-06T18:52:27.632Z,4.07
2019-03-06T18:55:01.390Z,3.93
2019-03-06T18:57:33.662Z,3.90
2019-03-06T19:00:07.722Z,3.63
2019-03-06T19:02:39.906Z,3.53
2019-03-06T19:05:12.417Z,28.40
2019-03-06T19:07:44.590Z,11.07
2019-03-06T19:10:17.256Z,6.43
2019-03-06T19:12:49.333Z,4.10
2019-03-06T19:15:21.546Z,3.50
2019-03-06T19:17:53.691Z,3.63
2019-03-06T19:20:25.838Z,3.77
2019-03-06T19:22:57.906Z,4.57
2019-03-06T19:25:31.284Z,4.87
2019-03-06T19:28:06.818Z,4.77
2019-03-06T19:30:39.027Z,5.40
2019-03-06T19:33:11.081Z,5.20
2019-03-06T19:35:43.202Z,3.53
2019-03-06T19:38:15.303Z,3.80
2019-03-06T19:40:47.376Z,4.13
2019-03-06T19:43:19.434Z,4.20
2019-03-06T19:45:51.561Z,5.07
2019-03-06T19:48:23.606Z,3.53
2019-03-06T19:50:55.675Z,3.67
2019-03-06T19:53:27.708Z,5.77
2019-03-06T19:55:59.834Z,3.10
2019-03-06T19:58:31.861Z,3.50
2019-03-06T20:01:03.943Z,3.80
2019-03-06T20:03:36.045Z,3.63
2019-03-06T20:06:08.028Z,4.00
2019-03-06T20:08:40.091Z,4.13
2019-03-06T20:11:12.119Z,3.70
2019-03-06T20:13:44.272Z,5.07
2019-03-06T20:16:16.419Z,5.70
2019-03-06T20:18:49.740Z,4.20
2019-03-06T20:21:21.813Z,3.90
2019-03-06T20:23:53.963Z,3.70
2019-03-06T20:26:26.038Z,3.70
2019-03-06T20:28:58.164Z,3.93
2019-03-06T20:31:30.448Z,4.03
2019-03-06T20:34:02.517Z,4.47
2019-03-06T20:36:34.528Z,3.70
2019-03-06T20:39:07.653Z,4.13
2019-03-06T20:41:39.697Z,5.13
2019-03-06T20:44:11.791Z,4.80
2019-03-06T20:46:43.855Z,4.50
2019-03-06T20:49:16.020Z,5.60
2019-03-06T20:51:50.303Z,4.60
2019-03-06T20:54:23.255Z,4.33
2019-03-06T20:56:57.416Z,3.33
2019-03-06T20:59:29.462Z,3.50
2019-03-06T21:02:01.533Z,3.90
2019-03-06T21:04:33.698Z,4.03
2019-03-06T21:07:06.119Z,5.30
2019-03-06T21:09:38.214Z,5.43
2019-03-06T21:12:10.275Z,5.73
2019-03-06T21:14:42.371Z,5.20
2019-03-06T21:17:14.421Z,5.97
2019-03-06T21:19:46.498Z,20.67
2019-03-06T21:22:18.593Z,9.53
2019-03-06T21:24:52.251Z,5.57
2019-03-06T21:27:24.299Z,6.97
2019-03-06T21:29:56.385Z,4.93
2019-03-06T21:32:28.725Z,5.40
2019-03-06T21:35:00.956Z,5.40
2019-03-06T21:37:32.967Z,5.00
2019-03-06T21:40:06.303Z,4.93
2019-03-06T21:42:38.352Z,4.57
2019-03-06T21:45:10.897Z,4.03
2019-03-06T21:47:43.053Z,4.77
2019-03-06T21:50:15.149Z,4.90
2019-03-06T21:52:47.191Z,5.10
2019-03-06T21:55:19.287Z,5.20
2019-03-06T21:57:51.682Z,5.20
2019-03-06T22:00:23.859Z,5.50
2019-03-06T22:02:55.893Z,6.07
2019-03-06T22:05:27.994Z,6.07
2019-03-06T22:08:00.042Z,4.60
2019-03-06T22:10:32.111Z,4.73
2019-03-06T22:13:04.172Z,6.03
2019-03-06T22:15:36.321Z,8.43
2019-03-06T22:18:08.356Z,7.30
2019-03-06T22:20:40.412Z,5.97
2019-03-06T22:23:12.409Z,6.23
2019-03-06T22:25:44.457Z,6.83
2019-03-06T22:28:16.694Z,7.30
2019-03-06T22:30:49.803Z,5.80
2019-03-06T22:33:22.181Z,5.10
2019-03-06T22:35:54.250Z,5.53
2019-03-06T22:38:26.267Z,4.90
2019-03-06T22:40:58.262Z,4.70
2019-03-06T22:43:30.310Z,4.57
2019-03-06T22:46:02.705Z,4.23
2019-03-06T22:48:36.886Z,4.43
2019-03-06T22:51:08.679Z,5.17
2019-03-06T22:53:40.716Z,4.70
2019-03-06T22:56:12.764Z,5.40
2019-03-06T22:58:44.839Z,5.30
2019-03-06T23:01:23.279Z,4.97
2019-03-06T23:03:56.732Z,5.00
2019-03-06T23:06:28.713Z,4.70
2019-03-06T23:09:00.710Z,3.50
2019-03-06T23:11:33.823Z,3.77
2019-03-06T23:14:05.827Z,6.60
2019-03-06T23:16:37.827Z,4.87
2019-03-06T23:19:09.981Z,3.50
2019-03-06T23:21:41.972Z,3.60
2019-03-06T23:24:14.005Z,4.70
2019-03-06T23:26:45.954Z,4.67
2019-03-06T23:29:17.942Z,3.50
2019-03-06T23:31:50.556Z,4.37
2019-03-06T23:34:22.649Z,4.37
2019-03-06T23:36:54.620Z,3.17
2019-03-06T23:39:26.649Z,3.50
2019-03-06T23:41:58.957Z,4.10
2019-03-06T23:44:30.956Z,3.50
2019-03-06T23:47:06.086Z,4.70
2019-03-06T23:49:38.081Z,4.63
2019-03-06T23:52:32.985Z,3.83
2019-03-06T23:55:05.215Z,3.80
2019-03-06T23:57:37.167Z,3.97
